Time;durP1;ratioP1;P1;durP2;ratioP2;P2;SDS_P1;SDS_P2;PMS_P1;PMS_P2;Temp;Humidity;BMP_temperature;BMP_pressure;BME280_temperature;BME280_humidity;BME280_pressure;Samples;Min_cycle;Max_cycle;Signal;HPM_P1;HPM_P2
2023/10/29 00:02:22;;;;;;;;;;;;;;;30.35;22.61;97370.66;4887106;29;20304;-91
2023/10/29 00:04:48;;;;;;;;;;;;;;;30.54;22.69;97366.28;4888841;29;20006;-91
2023/10/29 00:07:14;;;;;;;;;;;;;;;30.52;22.97;97368.03;4887966;29;20018;-91
2023/10/29 00:09:40;;;;;;;;;;;;;;;30.49;22.98;97375.47;4893012;29;20017;-91
2023/10/29 00:12:06;;;;;;;;;;;;;;;30.43;22.87;97374.63;4892552;29;20287;-92
2023/10/29 00:14:32;;;;;;;;;;;;;;;30.31;23.11;97369.25;4890033;29;19923;-91
2023/10/29 00:16:58;;;;;;;;;;;;;;;30.23;22.91;97370.94;4887938;29;19958;-92
2023/10/29 00:19:24;;;;;;;;;;;;;;;30.37;22.29;97364.47;4895285;29;19923;-91
2023/10/29 00:21:50;;;;;;;;;;;;;;;30.11;23.16;97361.50;4899102;29;19924;-91
2023/10/29 00:24:17;;;;;;;;;;;;;;;29.98;23.47;97349.72;4885523;29;20006;-91
2023/10/29 00:26:43;;;;;;;;;;;;;;;29.79;23.76;97352.03;4891157;29;19923;-91
2023/10/29 00:29:09;;;;;;;;;;;;;;;29.81;23.56;97357.97;4889103;29;20007;-91
2023/10/29 00:31:35;;;;;;;;;;;;;;;30.02;23.45;97355.97;4889076;29;19963;-91
2023/10/29 00:34:03;;;;;;;;;;;;;;;30.04;23.12;97357.03;4899369;29;19915;-91
2023/10/29 00:36:29;;;;;;;;;;;;;;;30.06;23.23;97354.50;4897084;29;19923;-91
2023/10/29 00:38:55;;;;;;;;;;;;;;;29.83;23.35;97349.75;4890195;29;20413;-91
2023/10/29 00:41:21;;;;;;;;;;;;;;;29.72;23.50;97360.09;4895626;29;19930;-91
2023/10/29 00:43:47;;;;;;;;;;;;;;;29.72;23.83;97355.22;4894425;29;20372;-91
2023/10/29 00:46:14;;;;;;;;;;;;;;;30.01;23.54;97366.50;4895376;29;19987;-92
2023/10/29 00:48:41;;;;;;;;;;;;;;;29.97;23.51;97363.09;4891164;29;19995;-91
2023/10/29 00:51:07;;;;;;;;;;;;;;;30.04;23.26;97361.91;4894946;29;19927;-91
2023/10/29 00:53:33;;;;;;;;;;;;;;;30.03;23.79;97355.50;4892730;29;19968;-92
2023/10/29 00:55:59;;;;;;;;;;;;;;;29.95;23.42;97367.69;4896617;29;20388;-92
2023/10/29 00:58:26;;;;;;;;;;;;;;;29.96;23.10;97364.41;4894672;29;20380;-91
2023/10/29 01:00:52;;;;;;;;;;;;;;;29.90;22.95;97371.22;4893361;29;19923;-91
2023/10/29 01:03:18;;;;;;;;;;;;;;;30.15;22.63;97381.13;4882850;29;19924;-91
2023/10/29 01:05:45;;;;;;;;;;;;;;;30.39;22.02;97379.69;4889673;29;20341;-91
2023/10/29 01:08:12;;;;;;;;;;;;;;;30.57;21.97;97367.34;4888505;29;19971;-91
2023/10/29 01:10:38;;;;;;;;;;;;;;;30.49;22.32;97377.53;4890877;29;20227;-91
2023/10/29 01:13:04;;;;;;;;;;;;;;;30.54;22.20;97377.59;4889462;29;19923;-91
2023/10/29 01:15:30;;;;;;;;;;;;;;;30.14;22.74;97369.03;4889533;29;19979;-91
2023/10/29 01:17:56;;;;;;;;;;;;;;;29.61;23.21;97372.03;4890096;29;19924;-91
2023/10/29 01:20:22;;;;;;;;;;;;;;;29.64;23.43;97371.03;4885059;29;19987;-91
2023/10/29 01:22:48;;;;;;;;;;;;;;;29.75;23.35;97371.22;4892362;29;19923;-91
2023/10/29 01:25:14;;;;;;;;;;;;;;;29.61;23.59;97376.88;4884824;29;20355;-91
2023/10/29 01:27:41;;;;;;;;;;;;;;;29.70;23.33;97373.97;4900899;29;19923;-91
2023/10/29 01:30:07;;;;;;;;;;;;;;;29.86;22.95;97379.13;4889431;29;20455;-91
2023/10/29 01:32:33;;;;;;;;;;;;;;;29.75;23.28;97374.06;4883026;29;20443;-91
2023/10/29 01:34:59;;;;;;;;;;;;;;;29.46;23.58;97365.56;4894665;29;19927;-91
2023/10/29 01:37:25;;;;;;;;;;;;;;;29.38;23.89;97365.19;4877547;29;20075;-91
2023/10/29 01:39:51;;;;;;;;;;;;;;;29.18;24.10;97361.47;4887009;29;20011;-91
2023/10/29 01:42:17;;;;;;;;;;;;;;;29.17;24.20;97363.47;4896586;29;20371;-91
2023/10/29 01:44:43;;;;;;;;;;;;;;;29.15;23.74;97363.19;4888434;29;20018;-92
2023/10/29 01:47:09;;;;;;;;;;;;;;;29.04;23.92;97356.53;4890915;29;20328;-92
2023/10/29 01:49:35;;;;;;;;;;;;;;;29.34;23.63;97366.63;4889109;29;19928;-92
2023/10/29 01:52:01;;;;;;;;;;;;;;;29.04;23.97;97362.97;4891922;29;19947;-92
2023/10/29 01:54:27;;;;;;;;;;;;;;;29.18;23.83;97362.25;4888989;29;19939;-92
2023/10/29 01:56:53;;;;;;;;;;;;;;;29.42;23.51;97356.50;4898478;29;19923;-92
2023/10/29 01:59:19;;;;;;;;;;;;;;;29.61;23.45;97359.91;4876741;29;19919;-92
2023/10/29 02:01:45;;;;;;;;;;;;;;;29.77;23.26;97365.09;4889620;29;20388;-92
2023/10/29 02:04:11;;;;;;;;;;;;;;;29.73;23.40;97361.66;4887331;29;19967;-92
2023/10/29 02:06:40;;;;;;;;;;;;;;;29.87;22.96;97369.38;4895131;29;19959;-91
2023/10/29 02:09:10;;;;;;;;;;;;;;;29.78;23.25;97363.84;4895975;29;20415;-91
2023/10/29 02:11:36;;;;;;;;;;;;;;;29.72;23.56;97369.38;4887681;29;19979;-91
2023/10/29 02:14:02;;;;;;;;;;;;;;;29.79;23.29;97373.88;4882948;29;20009;-91
2023/10/29 02:16:28;;;;;;;;;;;;;;;29.66;23.61;97373.38;4888578;29;20384;-92
2023/10/29 02:18:54;;;;;;;;;;;;;;;29.67;23.64;97367.22;4884643;29;19927;-92
2023/10/29 02:21:22;;;;;;;;;;;;;;;30.05;23.28;97377.63;4894348;29;19924;-91
2023/10/29 02:23:51;;;;;;;;;;;;;;;30.25;22.67;97377.66;4895990;29;20367;-91
2023/10/29 02:26:17;;;;;;;;;;;;;;;30.39;22.97;97382.53;4896047;29;20015;-91
2023/10/29 02:28:43;;;;;;;;;;;;;;;30.31;23.41;97387.03;4897200;29;19923;-91
2023/10/29 02:31:18;;;;;;;;;;;;;;;30.27;22.59;97383.63;4900487;29;20023;-91
2023/10/29 02:33:44;;;;;;;;;;;;;;;30.12;22.95;97379.28;4895239;29;19927;-91
2023/10/29 02:36:10;;;;;;;;;;;;;;;29.96;23.17;97387.03;4895974;29;19931;-91
2023/10/29 02:38:43;;;;;;;;;;;;;;;29.97;22.92;97379.31;4898220;29;19939;-92
2023/10/29 02:41:09;;;;;;;;;;;;;;;29.78;23.40;97383.66;4892073;29;19924;-92
2023/10/29 02:43:38;;;;;;;;;;;;;;;29.89;22.82;97378.16;4890459;29;19994;-92
2023/10/29 02:46:04;;;;;;;;;;;;;;;29.77;22.77;97365.09;4889445;29;19920;-91
2023/10/29 02:48:30;;;;;;;;;;;;;;;30.01;22.91;97362.91;4896410;29;20397;-91
2023/10/29 02:50:56;;;;;;;;;;;;;;;29.93;22.73;97365.38;4895790;29;19928;-92
2023/10/29 02:53:22;;;;;;;;;;;;;;;29.93;22.74;97365.38;4899899;29;20010;-92
2023/10/29 02:55:48;;;;;;;;;;;;;;;29.89;22.97;97364.00;4901992;29;20380;-92
2023/10/29 02:58:14;;;;;;;;;;;;;;;29.73;22.90;97365.28;4902667;29;19922;-92
2023/10/29 03:00:40;;;;;;;;;;;;;;;29.73;23.06;97367.31;4893769;29;19955;-92
2023/10/29 03:03:06;;;;;;;;;;;;;;;29.66;23.12;97365.69;4889461;29;19987;-91
2023/10/29 03:05:32;;;;;;;;;;;;;;;29.21;23.53;97364.13;4893422;29;19927;-92
2023/10/29 03:07:59;;;;;;;;;;;;;;;28.95;24.10;97367.94;4893351;29;19923;-91
2023/10/29 03:10:26;;;;;;;;;;;;;;;29.15;23.69;97377.31;4893559;29;20023;-92
2023/10/29 03:12:55;;;;;;;;;;;;;;;29.22;23.40;97371.31;4880446;29;19923;-91
2023/10/29 03:15:21;;;;;;;;;;;;;;;29.22;23.30;97382.63;4898382;29;19931;-91
2023/10/29 03:17:47;;;;;;;;;;;;;;;29.19;23.59;97380.00;4892106;29;19930;-91
2023/10/29 03:20:16;;;;;;;;;;;;;;;29.36;22.91;97384.69;4892399;29;20398;-91
2023/10/29 03:22:42;;;;;;;;;;;;;;;29.27;23.16;97386.81;4893790;29;19923;-91
2023/10/29 03:25:08;;;;;;;;;;;;;;;29.15;23.65;97387.88;4895678;29;19924;-91
2023/10/29 03:27:34;;;;;;;;;;;;;;;28.75;23.55;97386.28;4896978;29;19929;-91
2023/10/29 03:30:00;;;;;;;;;;;;;;;28.42;23.76;97388.41;4891967;29;19924;-91
2023/10/29 03:32:26;;;;;;;;;;;;;;;28.58;24.00;97384.38;4894104;29;19942;-91
2023/10/29 03:34:52;;;;;;;;;;;;;;;28.72;23.47;97387.28;4899566;29;19927;-91
2023/10/29 03:37:18;;;;;;;;;;;;;;;28.62;23.41;97379.34;4891883;29;19930;-91
2023/10/29 03:39:44;;;;;;;;;;;;;;;28.71;23.55;97388.53;4887432;29;20444;-91
2023/10/29 03:42:10;;;;;;;;;;;;;;;28.56;23.05;97384.06;4893562;29;19923;-92
2023/10/29 03:44:36;;;;;;;;;;;;;;;28.67;23.38;97381.50;4888100;29;19923;-92
2023/10/29 03:47:02;;;;;;;;;;;;;;;28.32;23.77;97392.53;4881878;29;19974;-92
2023/10/29 03:49:28;;;;;;;;;;;;;;;28.19;23.77;97389.16;4895444;29;19927;-92
2023/10/29 03:51:54;;;;;;;;;;;;;;;28.18;23.79;97392.44;4896946;29;20030;-91
2023/10/29 03:54:20;;;;;;;;;;;;;;;28.22;23.98;97393.84;4896368;29;19923;-91
2023/10/29 03:56:46;;;;;;;;;;;;;;;28.32;23.46;97392.53;4894386;29;19939;-92
2023/10/29 03:59:12;;;;;;;;;;;;;;;28.38;23.43;97398.31;4897366;29;19923;-91
2023/10/29 04:01:38;;;;;;;;;;;;;;;28.18;23.47;97392.44;4887811;29;19931;-91
2023/10/29 04:04:05;;;;;;;;;;;;;;;28.33;23.68;97398.97;4899858;29;19928;-92
2023/10/29 04:06:31;;;;;;;;;;;;;;;28.56;23.59;97389.72;4894133;29;19932;-92
2023/10/29 04:08:57;;;;;;;;;;;;;;;28.48;23.39;97389.28;4898298;29;19931;-92
2023/10/29 04:11:23;;;;;;;;;;;;;;;28.72;22.78;97392.16;4890160;29;19923;-91
2023/10/29 04:13:49;;;;;;;;;;;;;;;28.85;22.93;97391.88;4881175;29;19920;-92
2023/10/29 04:16:15;;;;;;;;;;;;;;;28.78;22.83;97397.91;4895504;29;19931;-92
2023/10/29 04:18:41;;;;;;;;;;;;;;;28.62;23.29;97396.28;4884377;29;19927;-92
2023/10/29 04:21:07;;;;;;;;;;;;;;;28.36;23.66;97401.59;4905160;29;20339;-92
2023/10/29 04:23:34;;;;;;;;;;;;;;;28.18;23.46;97398.88;4876734;29;20018;-92
2023/10/29 04:26:00;;;;;;;;;;;;;;;28.22;23.70;97395.88;4881159;29;20396;-92
2023/10/29 04:28:26;;;;;;;;;;;;;;;27.85;24.32;97395.22;4882483;29;19928;-92
2023/10/29 04:30:54;;;;;;;;;;;;;;;27.95;23.77;97388.31;4885404;29;19923;-91
2023/10/29 04:33:20;;;;;;;;;;;;;;;28.15;23.42;97396.22;4891363;29;19928;-92
2023/10/29 04:35:46;;;;;;;;;;;;;;;28.29;23.23;97387.84;4897568;29;19919;-92
2023/10/29 04:38:12;;;;;;;;;;;;;;;28.42;23.15;97385.59;4882601;29;19975;-91
2023/10/29 04:40:38;;;;;;;;;;;;;;;28.20;23.71;97389.94;4884235;29;19923;-92
2023/10/29 04:43:04;;;;;;;;;;;;;;;28.08;23.60;97388.88;4884748;29;20381;-91
2023/10/29 04:45:30;;;;;;;;;;;;;;;28.20;23.55;97387.09;4886461;29;20292;-92
2023/10/29 04:47:56;;;;;;;;;;;;;;;28.25;23.52;97373.13;4889621;29;19923;-92
2023/10/29 04:50:22;;;;;;;;;;;;;;;28.41;23.46;97369.88;4896088;29;19931;-91
2023/10/29 04:52:48;;;;;;;;;;;;;;;28.43;23.51;97366.56;4871338;29;19923;-92
2023/10/29 04:55:14;;;;;;;;;;;;;;;28.54;23.30;97364.75;4893492;29;19931;-91
2023/10/29 04:57:40;;;;;;;;;;;;;;;28.39;23.59;97375.25;4886957;29;19927;-92
2023/10/29 05:00:06;;;;;;;;;;;;;;;28.31;23.69;97370.44;4888642;29;20018;-92
2023/10/29 05:02:33;;;;;;;;;;;;;;;28.30;23.47;97361.19;4896403;29;19973;-91
2023/10/29 05:04:59;;;;;;;;;;;;;;;28.28;23.53;97369.34;4894519;29;20392;-92
2023/10/29 05:07:25;;;;;;;;;;;;;;;28.12;23.68;97371.78;4892533;29;19996;-92
2023/10/29 05:09:51;;;;;;;;;;;;;;;28.12;23.92;97378.22;4895469;29;20379;-92
2023/10/29 05:12:17;;;;;;;;;;;;;;;28.26;23.65;97371.09;4891026;29;19923;-92
2023/10/29 05:14:43;;;;;;;;;;;;;;;28.28;23.57;97366.53;4885086;29;19924;-93
2023/10/29 05:17:09;;;;;;;;;;;;;;;28.19;23.70;97369.41;4892633;29;19924;-91
2023/10/29 05:19:35;;;;;;;;;;;;;;;28.05;24.01;97373.69;4885158;29;19927;-92
2023/10/29 05:22:01;;;;;;;;;;;;;;;28.02;24.32;97374.66;4875038;29;19994;-91
2023/10/29 05:24:27;;;;;;;;;;;;;;;28.22;23.59;97368.44;4895040;29;20014;-92
2023/10/29 05:26:53;;;;;;;;;;;;;;;28.49;23.14;97370.31;4895930;29;19963;-91
2023/10/29 05:29:21;;;;;;;;;;;;;;;28.50;23.01;97369.81;4891688;29;20352;-91
2023/10/29 05:31:47;;;;;;;;;;;;;;;28.55;22.97;97369.16;4888912;29;19972;-92
2023/10/29 05:34:14;;;;;;;;;;;;;;;28.62;23.09;97371.66;4893193;29;19927;-92
2023/10/29 05:36:41;;;;;;;;;;;;;;;28.33;23.63;97377.16;4893745;29;19931;-92
2023/10/29 05:39:08;;;;;;;;;;;;;;;28.06;23.89;97375.25;4882710;29;19984;-92
2023/10/29 05:41:34;;;;;;;;;;;;;;;28.08;23.66;97386.84;4893293;29;20015;-91
2023/10/29 05:44:00;;;;;;;;;;;;;;;28.46;23.14;97383.34;4888958;29;20015;-93
2023/10/29 05:46:27;;;;;;;;;;;;;;;28.63;23.02;97380.91;4895181;29;19931;-90
2023/10/29 05:48:53;;;;;;;;;;;;;;;28.72;22.85;97387.28;4885255;29;19927;-92
2023/10/29 05:51:19;;;;;;;;;;;;;;;28.40;23.17;97387.31;4894123;29;19924;-92
2023/10/29 05:53:47;;;;;;;;;;;;;;;28.21;23.64;97394.31;4894683;29;19928;-93
2023/10/29 05:56:13;;;;;;;;;;;;;;;28.32;23.74;97389.72;4888413;29;19923;-92
2023/10/29 05:58:39;;;;;;;;;;;;;;;28.36;23.36;97400.81;4892977;29;20258;-92
2023/10/29 06:01:05;;;;;;;;;;;;;;;28.68;23.15;97408.50;4890834;29;19930;-91
2023/10/29 06:03:33;;;;;;;;;;;;;;;28.78;23.72;97401.50;4888929;29;19927;-92
2023/10/29 06:05:59;;;;;;;;;;;;;;;28.65;23.58;97396.13;4891881;29;20317;-92
2023/10/29 06:08:25;;;;;;;;;;;;;;;28.57;23.79;97399.75;4883428;29;20402;-92
2023/10/29 06:10:52;;;;;;;;;;;;;;;28.58;23.69;97404.94;4886049;29;19924;-91
2023/10/29 06:13:18;;;;;;;;;;;;;;;28.59;23.58;97411.41;4888319;29;20811;-92
2023/10/29 06:15:44;;;;;;;;;;;;;;;28.75;23.85;97405.31;4888728;29;20392;-91
2023/10/29 06:18:10;;;;;;;;;;;;;;;28.63;23.86;97406.34;4881840;29;19935;-92
2023/10/29 06:20:41;;;;;;;;;;;;;;;28.76;24.32;97412.50;4890306;29;19936;-93
2023/10/29 06:23:07;;;;;;;;;;;;;;;29.12;23.28;97423.53;4888403;29;20036;-93
2023/10/29 06:25:33;;;;;;;;;;;;;;;29.40;23.44;97430.53;4892400;29;19924;-93
2023/10/29 06:28:00;;;;;;;;;;;;;;;29.50;24.34;97428.38;4897373;29;20026;-93
2023/10/29 06:30:25;;;;;;;;;;;;;;;29.80;23.70;97437.72;4900171;29;20455;-93
2023/10/29 06:32:51;;;;;;;;;;;;;;;29.69;24.02;97445.94;4895740;29;19923;-93
2023/10/29 06:35:18;;;;;;;;;;;;;;;29.74;23.22;97448.09;4893270;29;19976;-93
2023/10/29 06:37:44;;;;;;;;;;;;;;;29.54;23.43;97440.31;4890594;29;19928;-93
2023/10/29 06:40:10;;;;;;;;;;;;;;;29.57;23.52;97444.97;4877549;29;20384;-93
2023/10/29 06:42:36;;;;;;;;;;;;;;;29.72;24.26;97453.47;4887871;29;19979;-93
2023/10/29 06:45:02;;;;;;;;;;;;;;;29.70;23.97;97445.47;4891835;29;19919;-93
2023/10/29 06:47:28;;;;;;;;;;;;;;;29.74;23.91;97439.63;4897434;29;19955;-93
2023/10/29 06:49:54;;;;;;;;;;;;;;;29.77;23.89;97438.69;4896512;29;19959;-93
2023/10/29 06:52:21;;;;;;;;;;;;;;;29.79;23.83;97448.25;4895322;29;19923;-91
2023/10/29 06:54:47;;;;;;;;;;;;;;;30.13;24.60;97449.56;4897378;29;19950;-93
2023/10/29 06:57:13;;;;;;;;;;;;;;;30.02;24.67;97441.69;4899503;29;19966;-92
2023/10/29 06:59:39;;;;;;;;;;;;;;;29.82;25.23;97444.44;4898492;29;19923;-92
2023/10/29 07:02:06;;;;;;;;;;;;;;;29.69;24.36;97441.09;4891619;29;19927;-90
2023/10/29 07:04:33;;;;;;;;;;;;;;;29.99;24.31;97441.91;4897927;29;19939;-92
2023/10/29 07:06:59;;;;;;;;;;;;;;;29.81;23.31;97439.25;4900047;29;20296;-92
2023/10/29 07:09:25;;;;;;;;;;;;;;;29.78;23.74;97443.09;4897037;29;19923;-92
2023/10/29 07:11:51;;;;;;;;;;;;;;;30.14;24.92;97430.53;4897613;29;19994;-92
2023/10/29 07:14:17;;;;;;;;;;;;;;;30.28;24.18;97426.88;4897028;29;19920;-92
2023/10/29 07:16:44;;;;;;;;;;;;;;;30.79;23.45;97435.63;4891568;29;19932;-91
2023/10/29 07:19:11;;;;;;;;;;;;;;;31.05;22.91;97430.06;4889655;29;19923;-93
2023/10/29 07:21:37;;;;;;;;;;;;;;;31.33;22.77;97428.31;4893800;29;20054;-93
2023/10/29 07:24:05;;;;;;;;;;;;;;;31.24;22.49;97423.59;4876363;29;20022;-93
2023/10/29 07:26:31;;;;;;;;;;;;;;;31.31;23.89;97413.88;4890448;29;19924;-93
2023/10/29 07:28:57;;;;;;;;;;;;;;;31.53;22.96;97419.03;4892014;29;19924;-93
2023/10/29 07:31:23;;;;;;;;;;;;;;;31.50;23.60;97412.28;4890445;29;20275;-89
2023/10/29 07:33:51;;;;;;;;;;;;;;;31.59;22.67;97417.81;4874082;29;19931;-92
2023/10/29 07:36:18;;;;;;;;;;;;;;;31.71;23.49;97427.19;4892707;29;19937;-92
2023/10/29 07:38:44;;;;;;;;;;;;;;;31.87;22.54;97421.69;4893936;29;19923;-89
2023/10/29 07:41:10;;;;;;;;;;;;;;;31.52;22.64;97423.13;4895323;29;19947;-90
2023/10/29 07:43:36;;;;;;;;;;;;;;;31.65;21.57;97417.88;4890888;29;19932;-91
2023/10/29 07:46:03;;;;;;;;;;;;;;;31.86;22.28;97402.28;4887234;29;20274;-92
2023/10/29 07:48:29;;;;;;;;;;;;;;;31.83;22.42;97420.34;4896479;29;19948;-93
2023/10/29 07:50:55;;;;;;;;;;;;;;;32.21;21.89;97417.06;4888998;29;19942;-91
2023/10/29 07:53:22;;;;;;;;;;;;;;;32.14;22.07;97411.84;4886278;29;19931;-90
2023/10/29 07:55:48;;;;;;;;;;;;;;;32.25;22.53;97411.16;4897587;29;19956;-90
2023/10/29 07:58:14;;;;;;;;;;;;;;;32.24;21.63;97412.41;4889107;29;20650;-90
2023/10/29 08:00:40;;;;;;;;;;;;;;;32.29;21.89;97408.84;4891407;29;19966;-91
2023/10/29 08:03:06;;;;;;;;;;;;;;;32.55;22.06;97413.19;4891761;29;20336;-90
2023/10/29 08:05:32;;;;;;;;;;;;;;;32.42;21.39;97401.44;4896183;29;19932;-91
2023/10/29 08:08:01;;;;;;;;;;;;;;;32.37;21.84;97407.84;4890180;29;19928;-94
2023/10/29 08:10:27;;;;;;;;;;;;;;;32.43;21.68;97403.00;4897351;29;20398;-94
2023/10/29 08:12:53;;;;;;;;;;;;;;;32.76;22.04;97399.59;4878994;29;19924;-94
2023/10/29 08:15:19;;;;;;;;;;;;;;;32.86;22.27;97403.00;4890728;29;19931;-94
2023/10/29 08:17:45;;;;;;;;;;;;;;;32.39;21.67;97399.63;4888963;29;20046;-90
2023/10/29 08:20:11;;;;;;;;;;;;;;;32.42;21.77;97407.13;4889042;29;19924;-91
2023/10/29 08:22:37;;;;;;;;;;;;;;;32.34;22.59;97400.38;4897163;29;19934;-93
2023/10/29 08:25:03;;;;;;;;;;;;;;;32.20;22.38;97407.00;4888802;29;19923;-94
2023/10/29 08:27:29;;;;;;;;;;;;;;;32.23;22.08;97403.13;4886775;29;19924;-91
2023/10/29 08:29:56;;;;;;;;;;;;;;;32.20;22.79;97404.16;4895284;29;20019;-91
2023/10/29 08:32:22;;;;;;;;;;;;;;;32.18;22.28;97409.56;4886650;29;20289;-93
2023/10/29 08:34:48;;;;;;;;;;;;;;;32.49;22.16;97405.88;4896158;29;20392;-95
2023/10/29 08:37:14;;;;;;;;;;;;;;;32.56;21.84;97411.88;4892622;29;19974;-94
2023/10/29 08:39:40;;;;;;;;;;;;;;;32.49;21.88;97408.69;4898863;29;19970;-93
2023/10/29 08:42:06;;;;;;;;;;;;;;;32.64;21.45;97412.19;4893529;29;19959;-93
2023/10/29 08:44:32;;;;;;;;;;;;;;;32.42;22.09;97409.97;4887437;29;20026;-93
2023/10/29 08:46:58;;;;;;;;;;;;;;;32.74;21.43;97408.63;4882278;29;19924;-95
2023/10/29 08:49:24;;;;;;;;;;;;;;;33.04;20.59;97411.13;4897271;29;19931;-94
2023/10/29 08:51:50;;;;;;;;;;;;;;;32.97;22.06;97420.88;4900335;29;19923;-93
2023/10/29 08:54:16;;;;;;;;;;;;;;;32.98;21.38;97418.84;4903366;29;19919;-95
2023/10/29 08:56:42;;;;;;;;;;;;;;;32.96;20.71;97415.69;4900466;29;19954;-95
2023/10/29 08:59:09;;;;;;;;;;;;;;;32.82;21.33;97410.97;4901079;29;20323;-95
2023/10/29 09:01:35;;;;;;;;;;;;;;;32.93;21.46;97411.81;4874537;29;20010;-95
2023/10/29 09:04:03;;;;;;;;;;;;;;;32.48;22.16;97407.94;4890663;29;19924;-93
2023/10/29 09:06:29;;;;;;;;;;;;;;;32.47;21.84;97411.28;4890459;29;19931;-90
2023/10/29 09:08:55;;;;;;;;;;;;;;;32.86;21.46;97405.84;4899961;29;19920;-90
2023/10/29 09:11:21;;;;;;;;;;;;;;;33.19;21.11;97403.13;4900006;29;20273;-90
2023/10/29 09:13:47;;;;;;;;;;;;;;;33.23;21.07;97401.63;4898169;29;20010;-90
2023/10/29 09:16:14;;;;;;;;;;;;;;;33.22;22.33;97402.91;4897001;29;20018;-91
2023/10/29 09:18:41;;;;;;;;;;;;;;;33.45;21.41;97400.88;4891089;29;20002;-90
2023/10/29 09:21:07;;;;;;;;;;;;;;;33.18;21.34;97410.91;4898832;29;19923;-91
2023/10/29 09:23:33;;;;;;;;;;;;;;;32.75;21.17;97407.34;4899003;29;19923;-93
2023/10/29 09:25:59;;;;;;;;;;;;;;;32.44;22.62;97404.53;4898583;29;20448;-92
2023/10/29 09:28:26;;;;;;;;;;;;;;;32.77;21.96;97395.44;4899053;29;20288;-92
2023/10/29 09:30:52;;;;;;;;;;;;;;;33.36;20.81;97396.22;4893355;29;19930;-91
2023/10/29 09:33:18;;;;;;;;;;;;;;;33.73;21.08;97401.72;4898578;29;20014;-91
2023/10/29 09:35:44;;;;;;;;;;;;;;;33.83;20.98;97402.25;4880565;29;19974;-89
2023/10/29 09:38:11;;;;;;;;;;;;;;;33.69;20.90;97397.59;4888132;29;20357;-89
2023/10/29 09:40:37;;;;;;;;;;;;;;;33.75;21.13;97392.69;4899385;29;19924;-89
2023/10/29 09:43:04;;;;;;;;;;;;;;;33.85;21.45;97399.66;4904411;29;20368;-89
2023/10/29 09:45:32;;;;;;;;;;;;;;;33.96;20.51;97391.09;4894512;29;19959;-91
2023/10/29 09:47:59;;;;;;;;;;;;;;;34.06;20.74;97383.88;4893494;29;19923;-91
2023/10/29 09:50:25;;;;;;;;;;;;;;;34.01;21.03;97373.25;4909532;29;20392;-92
2023/10/29 09:52:55;;;;;;;;;;;;;;;34.21;20.24;97375.84;4894787;29;19920;-91
2023/10/29 09:55:21;;;;;;;;;;;;;;;34.41;19.77;97364.13;4897911;29;20017;-92
2023/10/29 09:57:47;;;;;;;;;;;;;;;34.14;20.33;97364.19;4896942;29;20336;-92
2023/10/29 10:00:15;;;;;;;;;;;;;;;34.43;20.64;97361.53;4877895;29;19923;-92
2023/10/29 10:02:55;;;;;;;;;;;;;;;34.36;20.03;97364.94;4894789;29;19936;-93
2023/10/29 10:05:22;;;;;;;;;;;;;;;34.54;19.18;97358.69;4878961;29;20293;-93
2023/10/29 10:07:48;;;;;;;;;;;;;;;34.57;20.69;97354.00;4894548;29;19927;-92
2023/10/29 10:10:15;;;;;;;;;;;;;;;34.49;20.39;97362.31;4891831;29;19974;-89
2023/10/29 10:12:48;;;;;;;;;;;;;;;34.30;21.16;97352.78;4889389;29;20055;-89
2023/10/29 10:15:15;;;;;;;;;;;;;;;34.41;20.99;97349.88;4889501;29;19920;-89
2023/10/29 10:17:58;;;;;;;;;;;;;;;34.52;20.04;97344.19;4881940;29;19924;-90
2023/10/29 10:20:24;;;;;;;;;;;;;;;35.00;20.08;97342.94;4898400;29;19919;-90
2023/10/29 10:22:57;;;;;;;;;;;;;;;34.67;20.32;97336.09;4894957;29;19931;-88
2023/10/29 10:25:24;;;;;;;;;;;;;;;34.22;20.18;97333.84;4871177;29;20396;-92
2023/10/29 10:27:51;;;;;;;;;;;;;;;34.38;21.31;97325.25;4887308;29;19932;-94
2023/10/29 10:30:27;;;;;;;;;;;;;;;34.69;20.15;97327.00;4888738;29;19923;-95
2023/10/29 10:32:54;;;;;;;;;;;;;;;34.92;20.65;97327.66;4895145;29;19934;-89
2023/10/29 10:35:20;;;;;;;;;;;;;;;34.78;21.10;97320.22;4894129;29;20063;-90
2023/10/29 10:37:55;;;;;;;;;;;;;;;35.17;20.85;97326.53;4891909;29;20412;-88
2023/10/29 10:40:26;;;;;;;;;;;;;;;35.20;19.64;97325.47;4891353;29;19923;-90
2023/10/29 10:42:55;;;;;;;;;;;;;;;35.57;19.44;97319.28;4893042;29;19930;-89
2023/10/29 10:45:26;;;;;;;;;;;;;;;35.56;19.07;97312.78;4886002;29;20075;-91
2023/10/29 10:47:56;;;;;;;;;;;;;;;35.49;19.06;97309.69;4881676;29;19931;-93
2023/10/29 10:50:24;;;;;;;;;;;;;;;35.57;18.77;97307.84;4890024;29;19930;-89
2023/10/29 10:52:51;;;;;;;;;;;;;;;34.87;19.97;97314.22;4858403;29;20289;-90
2023/10/29 10:55:17;;;;;;;;;;;;;;;34.65;20.52;97321.59;4895530;29;19971;-87
2023/10/29 10:57:44;;;;;;;;;;;;;;;34.56;20.71;97316.19;4894256;29;20376;-88
2023/10/29 11:00:14;;;;;;;;;;;;;;;34.65;20.56;97315.88;4897638;29;19920;-88
2023/10/29 11:02:40;;;;;;;;;;;;;;;34.72;20.78;97309.63;4895670;29;19935;-87
2023/10/29 11:05:10;;;;;;;;;;;;;;;35.02;19.71;97308.97;4891730;29;19928;-89
2023/10/29 11:07:36;;;;;;;;;;;;;;;35.26;19.44;97300.53;4891312;29;19930;-88
2023/10/29 11:10:03;;;;;;;;;;;;;;;35.35;20.21;97308.75;4873292;29;20030;-89
2023/10/29 11:12:33;;;;;;;;;;;;;;;35.42;18.51;97300.41;4901143;29;20343;-89
2023/10/29 11:15:11;;;;;;;;;;;;;;;35.15;20.78;97300.59;4895754;29;19930;-89
2023/10/29 11:17:55;;;;;;;;;;;;;;;35.27;19.31;97296.34;4886882;29;20324;-86
2023/10/29 11:20:37;;;;;;;;;;;;;;;35.53;19.54;97290.22;4895664;29;19927;-88
2023/10/29 11:23:07;;;;;;;;;;;;;;;35.74;19.42;97291.31;4893230;29;19923;-89
2023/10/29 11:25:33;;;;;;;;;;;;;;;35.69;19.96;97283.56;4884118;29;19966;-87
2023/10/29 11:27:59;;;;;;;;;;;;;;;35.81;19.25;97280.09;4881943;29;19924;-87
2023/10/29 11:30:28;;;;;;;;;;;;;;;36.01;19.24;97282.50;4897394;29;20360;-86
2023/10/29 11:33:06;;;;;;;;;;;;;;;36.05;18.68;97270.78;4882706;29;20328;-86
2023/10/29 11:35:33;;;;;;;;;;;;;;;36.23;18.08;97272.94;4890344;29;20414;-85
2023/10/29 11:38:00;;;;;;;;;;;;;;;36.18;18.66;97276.63;4889477;29;19930;-86
2023/10/29 11:40:30;;;;;;;;;;;;;;;36.25;17.91;97276.03;4893786;29;19974;-85
2023/10/29 11:43:18;;;;;;;;;;;;;;;36.15;19.14;97266.28;4897228;29;21579;-88
2023/10/29 11:46:01;;;;;;;;;;;;;;;36.04;18.94;97274.94;4886878;29;20011;-86
2023/10/29 11:48:29;;;;;;;;;;;;;;;35.90;17.79;97273.25;4894532;29;20018;-88
2023/10/29 11:51:10;;;;;;;;;;;;;;;35.61;18.68;97274.84;4891332;29;19923;-88
2023/10/29 11:53:37;;;;;;;;;;;;;;;34.79;20.23;97279.00;4890070;29;19955;-89
2023/10/29 11:56:09;;;;;;;;;;;;;;;34.88;19.27;97276.59;4889512;29;20014;-84
2023/10/29 11:58:36;;;;;;;;;;;;;;;35.29;19.46;97271.69;4894929;29;19955;-88
2023/10/29 12:01:02;;;;;;;;;;;;;;;35.72;18.69;97265.38;4885698;29;19930;-85
2023/10/29 12:03:32;;;;;;;;;;;;;;;35.80;19.50;97257.78;4893327;29;19927;-87
2023/10/29 12:05:58;;;;;;;;;;;;;;;35.69;18.12;97258.66;4899081;29;19919;-86
2023/10/29 12:08:25;;;;;;;;;;;;;;;35.41;19.12;97252.38;4883270;29;19927;-87
2023/10/29 12:10:52;;;;;;;;;;;;;;;34.92;18.47;97253.47;4898858;29;19924;-85
2023/10/29 12:13:19;;;;;;;;;;;;;;;34.38;18.55;97258.94;4892640;29;19930;-87
2023/10/29 12:15:54;;;;;;;;;;;;;;;34.29;18.82;97247.81;4895892;29;19923;-88
2023/10/29 12:18:20;;;;;;;;;;;;;;;34.52;19.39;97237.88;4898216;29;19987;-87
2023/10/29 12:20:47;;;;;;;;;;;;;;;34.68;19.61;97239.91;4898094;29;20002;-86
2023/10/29 12:23:13;;;;;;;;;;;;;;;34.53;20.06;97239.47;4898142;29;19931;-88
2023/10/29 12:25:39;;;;;;;;;;;;;;;34.10;18.65;97230.53;4896032;29;19934;-86
2023/10/29 12:28:06;;;;;;;;;;;;;;;34.05;19.23;97232.09;4889638;29;20273;-87
2023/10/29 12:30:33;;;;;;;;;;;;;;;33.90;21.88;97227.97;4893361;29;20022;-87
2023/10/29 12:33:16;;;;;;;;;;;;;;;34.22;19.65;97232.03;4892479;29;19931;-88
2023/10/29 12:35:42;;;;;;;;;;;;;;;34.52;19.60;97235.81;4895041;29;19924;-87
2023/10/29 12:38:12;;;;;;;;;;;;;;;34.96;18.38;97216.91;4895274;29;19931;-88
2023/10/29 12:40:57;;;;;;;;;;;;;;;35.06;19.09;97212.44;4895863;29;19931;-87
2023/10/29 12:43:35;;;;;;;;;;;;;;;35.12;18.54;97216.81;4895577;29;20389;-88
2023/10/29 12:46:05;;;;;;;;;;;;;;;35.22;18.04;97200.88;4891848;29;19931;-86
2023/10/29 12:48:32;;;;;;;;;;;;;;;35.07;19.54;97202.59;4888407;29;19924;-87